Bookmark and Share
Track history (hours):
 

Nisshoumaru

Last reported at 2014-Apr-19 01:19 UTC. Time now 2014-Apr-19 02:02 UTC.
Position N 35°56' E 140°40'.

Length 76 m; draft 4 m.

Type: Cargo ship. MMSI: 431001549.

NotesDate/timePositionNaut miles runAvg speedWind from/ knotsBaromVisibWave heightAir tempDewpointWater temp
2014-Apr-19 01:19N 35°56' E 140°40'0 0.0
2014-Apr-19 00:08N 35°56' E 140°40'0 0.0
2014-Apr-18 22:19N 35°56' E 140°40'0 0.0
2014-Apr-18 21:29N 35°56' E 140°40'0 0.0
2014-Apr-18 20:27N 35°56' E 140°40'0 0.0
2014-Apr-18 19:32N 35°56' E 140°40'0 0.0
2014-Apr-18 16:27N 35°56' E 140°40'0 0.0
2014-Apr-18 15:19N 35°56' E 140°40'0 0.0
2014-Apr-18 13:26N 35°56' E 140°40'0 0.0
2014-Apr-17 19:18N 35°56' E 140°40'0 0.0
2014-Apr-17 16:32N 35°56' E 140°40'0 0.0
2014-Apr-17 15:30N 35°56' E 140°40'0 0.0
2014-Apr-17 14:33N 35°56' E 140°40'0 0.0
2014-Apr-17 13:29N 35°56' E 140°40'0 0.0
2014-Apr-17 07:23N 35°56' E 140°40'0 0.0
2014-Apr-17 06:30N 35°56' E 140°40'0 0.0
2014-Apr-17 05:23N 35°56' E 140°40'0 0.0
2014-Apr-17 04:33N 35°56' E 140°40'0 0.0
2014-Apr-17 00:20N 35°56' E 140°40'0 0.0
2014-Apr-16 17:25N 35°56' E 140°40'0 0.0
2014-Apr-16 16:33N 35°56' E 140°40'0 0.0
2014-Apr-16 13:33N 35°56' E 140°40'0 0.0
2014-Apr-16 12:33N 35°56' E 140°40'0 0.0
2014-Apr-16 11:17N 35°56' E 140°40'0 0.0
2014-Apr-16 06:33N 35°56' E 140°40'  
2014-Apr-13 22:32N 35°00' E 140°10'1212.4
2014-Apr-13 21:33N 34°53' E 139°58'1211.2
2014-Apr-13 20:29N 34°57' E 139°44'1212.4
2014-Apr-13 19:33N 35°08' E 139°45'1212.0
2014-Apr-13 18:33N 35°20' E 139°42'8 7.8
2014-Apr-13 17:33N 35°22' E 139°52'2 1.5
2014-Apr-13 16:33N 35°22' E 139°53'0 0.0
2014-Apr-13 15:33N 35°22' E 139°53'0 0.0
2014-Apr-13 14:33N 35°22' E 139°53'0 0.0
2014-Apr-13 13:33N 35°22' E 139°53'0 0.0
2014-Apr-13 12:33N 35°22' E 139°53'0 0.0
2014-Apr-13 11:33N 35°22' E 139°53'3 2.6
2014-Apr-13 10:33N 35°23' E 139°51'0 0.0
2014-Apr-13 09:33N 35°23' E 139°51'0 0.0
2014-Apr-13 08:33N 35°23' E 139°51'0 0.0
2014-Apr-13 07:33N 35°23' E 139°51'0 0.1
2014-Apr-13 06:33N 35°23' E 139°51'0 0.0
2014-Apr-13 05:33N 35°23' E 139°51'0 0.0
2014-Apr-13 04:33N 35°23' E 139°51'0 0.1
2014-Apr-13 03:33N 35°23' E 139°51'5 4.8
2014-Apr-13 02:33N 35°25' E 139°45'0 0.2
2014-Apr-13 01:33N 35°24' E 139°45'0 0.0
2014-Apr-13 00:33N 35°24' E 139°45'0 0.0
2014-Apr-12 23:33N 35°24' E 139°45'0 0.0
2014-Apr-12 22:33N 35°24' E 139°45'1 0.6
2014-Apr-12 21:33N 35°24' E 139°44'10 9.7
2014-Apr-12 20:33N 35°15' E 139°47'1110.7
2014-Apr-12 19:33N 35°04' E 139°43'1212.1
2014-Apr-12 18:33N 34°57' E 139°31'14 0.3
2014-Apr-10 23:21N 35°08' E 139°42'911.9
2014-Apr-10 22:34N 35°17' E 139°44'6 5.6
2014-Apr-10 21:33N 35°22' E 139°40'0 0.0
2014-Apr-10 20:33N 35°22' E 139°40'0 0.0
2014-Apr-10 19:33N 35°22' E 139°40'0 0.0
2014-Apr-10 18:33N 35°22' E 139°40'0 0.0
2014-Apr-10 17:33N 35°22' E 139°40'0 0.0
2014-Apr-10 16:33N 35°22' E 139°40'0 0.0
2014-Apr-10 15:30N 35°22' E 139°40'0 0.0
2014-Apr-10 14:33N 35°22' E 139°40'0 0.0
2014-Apr-10 13:27N 35°22' E 139°40'0 0.0
2014-Apr-10 12:13N 35°22' E 139°40'0 0.0
2014-Apr-10 11:31N 35°22' E 139°40'0 0.0
2014-Apr-10 10:31N 35°22' E 139°40'3 2.9
2014-Apr-10 09:33N 35°20' E 139°43'1010.5
2014-Apr-10 08:33N 35°10' E 139°46'1312.3
2014-Apr-10 07:29N 34°57' E 139°44'16 7.5
2014-Apr-10 05:24N 34°56' E 140°03'910.2
2014-Apr-10 04:33N 35°01' E 140°12'2010.2
2014-Apr-10 02:33N 35°14' E 140°31'1211.6
2014-Apr-10 01:33N 35°24' E 140°39'2511.7
2014-Apr-09 23:27N 35°45' E 140°55'1312.5
2014-Apr-09 22:23N 35°56' E 140°45'5 2.5
2014-Apr-09 20:33N 35°56' E 140°40'0 0.1
2014-Apr-09 19:31N 35°56' E 140°40'0 0.0
2014-Apr-09 14:31N 35°56' E 140°40'0 0.0
2014-Apr-09 11:27N 35°56' E 140°40'0 0.0
2014-Apr-09 10:33N 35°56' E 140°40'0 0.0
2014-Apr-09 09:30N 35°56' E 140°40'2 0.4
2014-Apr-09 04:21N 35°57' E 140°42'0 0.0
2014-Apr-09 03:28N 35°57' E 140°42'  

Dump ship's entire track history

sailing weather and tide predictions

Nisshoumaru — JD3093 — position and weather